Time;durP1;ratioP1;P1;durP2;ratioP2;P2;SDS_P1;SDS_P2;PMS_P1;PMS_P2;Temp;Humidity;BMP_temperature;BMP_pressure;BME280_temperature;BME280_humidity;BME280_pressure;Samples;Min_cycle;Max_cycle;Signal;HPM_P1;HPM_P2
2022/12/07 00:02:08;;;;;;;2.50;2.15;;;;;;;3.49;100.00;99842.04;2817108;83;21105;-91
2022/12/07 00:06:13;;;;;;;2.42;2.22;;;;;;;3.40;100.00;99843.42;2727377;85;21153;-92
2022/12/07 00:10:15;;;;;;;5.05;2.67;;;;;;;3.42;100.00;99838.92;2780573;84;21610;-91
2022/12/07 00:14:18;;;;;;;2.85;2.15;;;;;;;3.42;100.00;99834.98;2770330;84;21122;-90
2022/12/07 00:18:19;;;;;;;4.53;2.02;;;;;;;3.44;100.00;99825.70;2764441;85;21055;-92
2022/12/07 00:22:20;;;;;;;2.92;1.40;;;;;;;3.38;100.00;99816.38;2702755;86;21116;-92
2022/12/07 00:26:26;;;;;;;3.42;2.22;;;;;;;3.36;100.00;99818.27;2804151;83;21018;-91
2022/12/07 00:30:28;;;;;;;1.50;1.40;;;;;;;3.33;100.00;99813.64;2797124;84;21024;-93
2022/12/07 00:34:30;;;;;;;1.47;1.37;;;;;;;3.38;100.00;99820.81;2772562;84;20999;-89
2022/12/07 00:38:34;;;;;;;1.45;1.27;;;;;;;3.31;100.00;99820.78;2757084;85;21579;-92
2022/12/07 00:42:35;;;;;;;2.42;1.95;;;;;;;3.31;100.00;99806.31;2748400;85;21058;-92
2022/12/07 00:46:36;;;;;;;4.60;1.57;;;;;;;3.34;100.00;99811.39;2724678;85;21352;-92
2022/12/07 00:50:38;;;;;;;3.87;3.25;;;;;;;3.27;100.00;99810.93;2737806;85;21051;-92
2022/12/07 00:54:40;;;;;;;1.85;1.05;;;;;;;3.26;100.00;99814.02;2792661;83;21573;-92
2022/12/07 00:58:41;;;;;;;1.50;1.40;;;;;;;3.21;100.00;99812.59;2773021;85;20987;-92
2022/12/07 01:02:42;;;;;;;2.47;2.00;;;;;;;3.23;100.00;99819.45;2823421;83;21110;-90
2022/12/07 01:06:44;;;;;;;1.25;0.72;;;;;;;3.19;100.00;99821.89;2792118;83;21307;-89
2022/12/07 01:10:46;;;;;;;1.37;1.00;;;;;;;3.17;100.00;99830.34;2794486;83;21072;-91
2022/12/07 01:14:47;;;;;;;1.42;0.80;;;;;;;3.15;100.00;99820.39;2733638;86;21076;-90
2022/12/07 01:18:51;;;;;;;2.90;1.20;;;;;;;3.18;100.00;99808.83;2824702;82;21082;-90
2022/12/07 01:22:53;;;;;;;2.58;1.15;;;;;;;3.10;100.00;99812.77;2865342;82;20976;-91
2022/12/07 01:26:54;;;;;;;1.10;1.02;;;;;;;2.99;100.00;99816.47;2835689;82;21115;-90
2022/12/07 01:31:14;;;;;;;1.62;1.07;;;;;;;3.07;100.00;99816.03;2817480;82;21555;-90
2022/12/07 01:35:12;;;;;;;2.00;1.75;;;;;;;3.07;100.00;99826.55;2827887;82;21032;-90
2022/12/07 01:39:14;;;;;;;0.93;0.80;;;;;;;3.06;100.00;99827.48;2811146;83;21044;-92
2022/12/07 01:43:19;;;;;;;0.90;0.50;;;;;;;2.96;100.00;99829.34;2803572;82;21106;-92
2022/12/07 01:47:20;;;;;;;1.47;1.00;;;;;;;3.01;100.00;99823.80;2801082;83;21046;-92
2022/12/07 01:51:21;;;;;;;1.27;1.12;;;;;;;2.95;100.00;99830.27;2860284;82;21000;-92
2022/12/07 01:55:23;;;;;;;2.20;0.62;;;;;;;2.94;100.00;99826.41;2834766;82;21063;-91
2022/12/07 01:59:26;;;;;;;3.65;1.37;;;;;;;2.95;100.00;99818.45;2826396;83;21086;-91
2022/12/07 02:03:38;;;;;;;0.82;0.53;;;;;;;2.96;100.00;99818.83;2795229;83;21006;-91
2022/12/07 02:07:40;;;;;;;1.42;0.88;;;;;;;3.03;100.00;99817.15;2763891;85;21568;-91
2022/12/07 02:11:42;;;;;;;1.47;1.07;;;;;;;2.95;100.00;99821.08;2811202;83;21003;-91
2022/12/07 02:16:14;;;;;;;1.37;0.75;;;;;;;2.98;100.00;99820.03;2772582;83;21079;-90
2022/12/07 02:20:29;;;;;;;1.12;0.90;;;;;;;2.91;100.00;99822.65;2804738;83;20971;-92
2022/12/07 02:24:48;;;;;;;1.07;1.00;;;;;;;2.96;100.00;99816.66;2797087;83;21057;-91
2022/12/07 02:29:22;;;;;;;1.10;1.00;;;;;;;3.06;100.00;99813.02;2796165;83;21045;-91
2022/12/07 02:33:37;;;;;;;1.32;1.22;;;;;;;3.08;100.00;99801.50;2825117;83;21042;-90
2022/12/07 02:38:08;;;;;;;1.57;1.05;;;;;;;3.15;100.00;99808.56;2801875;83;21735;-91
2022/12/07 02:42:17;;;;;;;1.35;1.00;;;;;;;3.21;100.00;99806.88;2794036;83;21057;-91
2022/12/07 02:46:33;;;;;;;1.32;1.22;;;;;;;3.23;100.00;99806.77;2778019;83;21070;-89
2022/12/07 02:50:34;;;;;;;0.82;0.82;;;;;;;3.26;100.00;99804.81;2670539;87;21796;-90
2022/12/07 02:54:35;;;;;;;1.67;1.55;;;;;;;3.24;100.00;99798.80;2658514;87;21076;-92
2022/12/07 02:58:48;;;;;;;0.98;0.82;;;;;;;3.26;100.00;99807.44;2668783;87;21074;-92
2022/12/07 03:03:11;;;;;;;1.57;1.42;;;;;;;3.18;100.00;99799.17;2673390;87;21696;-91
2022/12/07 03:07:50;;;;;;;2.45;1.20;;;;;;;3.19;100.00;99798.69;2690413;87;21142;-92
2022/12/07 03:11:57;;;;;;;3.08;1.50;;;;;;;3.12;100.00;99795.13;2549894;92;21111;-92
2022/12/07 03:16:18;;;;;;;1.50;1.25;;;;;;;3.18;100.00;99791.29;2542109;92;21147;-92
2022/12/07 03:20:22;;;;;;;1.20;1.10;;;;;;;3.12;100.00;99783.75;2586552;90;21637;-92
2022/12/07 03:24:29;;;;;;;1.42;1.32;;;;;;;3.14;100.00;99781.42;2581169;91;21082;-92
2022/12/07 03:28:35;;;;;;;1.45;1.12;;;;;;;3.24;100.00;99781.72;2719149;86;21121;-91
2022/12/07 03:33:07;;;;;;;1.87;1.27;;;;;;;3.34;100.00;99775.89;2727909;86;21171;-93
2022/12/07 03:37:34;;;;;;;1.72;1.12;;;;;;;3.38;100.00;99776.11;2724198;86;21186;-93
2022/12/07 03:41:37;;;;;;;1.30;1.17;;;;;;;3.34;100.00;99779.38;2721261;86;21081;-92
2022/12/07 03:45:47;;;;;;;1.72;1.60;;;;;;;3.31;100.00;99774.77;2723457;82;21555;-92
2022/12/07 03:50:09;;;;;;;2.52;1.65;;;;;;;3.29;100.00;99770.45;2829340;82;21027;-92
2022/12/07 03:54:33;;;;;;;3.50;2.75;;;;;;;3.28;100.00;99764.81;2822712;82;21034;-93
2022/12/07 03:58:35;;;;;;;3.60;3.05;;;;;;;3.34;100.00;99758.35;2821306;84;21099;-91
2022/12/07 04:02:37;;;;;;;4.53;3.50;;;;;;;3.39;100.00;99756.77;2805737;83;21113;-91
2022/12/07 04:06:39;;;;;;;5.00;4.35;;;;;;;3.43;100.00;99760.89;2800153;83;21098;-91
2022/12/07 04:10:40;;;;;;;4.22;2.87;;;;;;;3.48;100.00;99768.52;2788257;84;21475;-91
2022/12/07 04:14:41;;;;;;;6.17;5.10;;;;;;;3.49;100.00;99768.41;2724117;86;21173;-91
2022/12/07 04:18:42;;;;;;;5.70;4.08;;;;;;;3.52;100.00;99772.16;2734486;86;21094;-93
2022/12/07 04:22:44;;;;;;;4.25;2.85;;;;;;;3.56;100.00;99760.99;2789699;84;20983;-92
2022/12/07 04:26:46;;;;;;;5.00;4.28;;;;;;;3.59;100.00;99759.48;2783076;84;21023;-92
2022/12/07 04:30:47;;;;;;;4.72;2.70;;;;;;;3.64;100.00;99759.21;2781117;85;21494;-91
2022/12/07 04:34:48;;;;;;;5.55;4.37;;;;;;;3.64;100.00;99761.39;2748100;84;21035;-92
2022/12/07 04:38:49;;;;;;;14.85;6.10;;;;;;;3.66;100.00;99768.70;2738302;85;21193;-91
2022/12/07 04:42:51;;;;;;;14.63;8.23;;;;;;;3.65;100.00;99754.33;2754720;85;21084;-91
2022/12/07 04:46:53;;;;;;;16.48;10.38;;;;;;;3.65;100.00;99751.69;2740136;85;21035;-91
2022/12/07 04:50:54;;;;;;;18.70;11.30;;;;;;;3.64;100.00;99748.69;2787164;85;21022;-90
2022/12/07 04:54:56;;;;;;;15.43;10.48;;;;;;;3.59;100.00;99747.65;2731876;86;21095;-91
2022/12/07 04:58:57;;;;;;;13.98;9.50;;;;;;;3.52;100.00;99750.29;2759506;85;20998;-91
2022/12/07 05:02:58;;;;;;;13.93;8.70;;;;;;;3.58;100.00;99743.33;2688616;86;21039;-92
2022/12/07 05:06:59;;;;;;;22.62;12.03;;;;;;;3.54;100.00;99746.64;2794198;83;21054;-90
2022/12/07 05:11:02;;;;;;;14.40;9.80;;;;;;;3.47;100.00;99746.62;2793341;84;21708;-92
2022/12/07 05:15:05;;;;;;;18.37;10.55;;;;;;;3.49;100.00;99733.39;2767906;84;21686;-89
2022/12/07 05:19:07;;;;;;;11.85;9.45;;;;;;;3.42;100.00;99738.17;2789879;83;21046;-90
2022/12/07 05:23:08;;;;;;;14.35;10.40;;;;;;;3.34;100.00;99735.14;2732299;85;21056;-93
2022/12/07 05:27:10;;;;;;;16.42;10.98;;;;;;;3.36;100.00;99741.19;2786807;83;21371;-89
2022/12/07 05:31:11;;;;;;;19.75;12.45;;;;;;;3.33;100.00;99740.03;2797824;83;21082;-93
2022/12/07 05:35:12;;;;;;;18.00;12.53;;;;;;;3.36;100.00;99735.44;2791626;84;21139;-91
2022/12/07 05:39:14;;;;;;;15.08;10.40;;;;;;;3.39;100.00;99740.99;2797788;83;21022;-91
2022/12/07 05:43:15;;;;;;;16.12;11.70;;;;;;;3.40;100.00;99744.00;2792390;84;21034;-91
2022/12/07 05:47:16;;;;;;;20.27;12.10;;;;;;;3.40;100.00;99742.68;2791970;84;22189;-92
2022/12/07 05:51:18;;;;;;;19.32;10.75;;;;;;;3.29;100.00;99727.08;2784260;85;21012;-92
2022/12/07 05:55:20;;;;;;;19.37;9.88;;;;;;;3.29;100.00;99743.34;2788387;84;21069;-92
2022/12/07 05:59:24;;;;;;;21.42;11.80;;;;;;;3.31;100.00;99723.05;2760159;85;21609;-92
2022/12/07 06:03:26;;;;;;;13.45;9.93;;;;;;;3.25;100.00;99747.09;2787608;83;21592;-92
2022/12/07 06:07:27;;;;;;;12.43;10.65;;;;;;;3.31;100.00;99730.08;2791467;85;21061;-92
2022/12/07 06:15:48;;;;;;;15.98;10.88;;;;;;;3.32;100.00;99726.51;2792717;85;22299;-90
2022/12/07 06:19:49;;;;;;;14.73;9.50;;;;;;;3.35;100.00;99730.30;2792965;84;21057;-92
2022/12/07 06:23:50;;;;;;;13.28;10.18;;;;;;;3.32;99.22;99731.77;2767770;83;21568;-92
2022/12/07 06:27:52;;;;;;;11.40;8.35;;;;;;;3.32;99.80;99729.14;2777455;83;21105;-93
2022/12/07 06:31:53;;;;;;;13.50;9.70;;;;;;;3.27;98.70;99735.52;2809368;83;21026;-93
2022/12/07 06:35:55;;;;;;;15.50;10.05;;;;;;;3.22;98.97;99728.39;2701561;87;21099;-91
2022/12/07 06:39:56;;;;;;;14.65;9.18;;;;;;;3.24;99.06;99728.28;2809797;82;21050;-92
2022/12/07 06:43:58;;;;;;;15.68;10.72;;;;;;;3.25;99.54;99734.77;2804978;83;21043;-92
2022/12/07 06:47:59;;;;;;;12.18;9.55;;;;;;;3.29;100.00;99732.33;2822738;82;21093;-92
2022/12/07 06:52:00;;;;;;;17.42;10.25;;;;;;;3.33;100.00;99733.45;2729096;85;21070;-90
2022/12/07 06:56:01;;;;;;;12.82;9.68;;;;;;;3.28;100.00;99730.64;2823566;83;21117;-92
2022/12/07 07:00:04;;;;;;;15.38;10.43;;;;;;;3.30;100.00;99737.13;2771256;83;20995;-91
2022/12/07 07:04:05;;;;;;;16.25;11.05;;;;;;;3.29;100.00;99740.22;2787435;84;21089;-92
2022/12/07 07:08:07;;;;;;;12.00;9.93;;;;;;;3.27;100.00;99738.16;2860382;82;21519;-92
2022/12/07 07:12:08;;;;;;;14.40;9.80;;;;;;;3.28;100.00;99731.95;2846740;82;21018;-91
2022/12/07 07:16:10;;;;;;;14.75;9.18;;;;;;;3.33;100.00;99738.72;2855285;82;21117;-92
2022/12/07 07:20:12;;;;;;;15.10;9.25;;;;;;;3.34;100.00;99726.80;2872827;82;21995;-93
2022/12/07 07:24:14;;;;;;;13.38;9.25;;;;;;;3.40;100.00;99722.96;2854586;82;21037;-92
2022/12/07 07:28:15;;;;;;;15.03;11.25;;;;;;;3.39;100.00;99721.27;2854158;82;21176;-90
2022/12/07 07:32:16;;;;;;;16.62;10.78;;;;;;;3.42;100.00;99718.45;2874192;82;21908;-92
2022/12/07 07:36:18;;;;;;;17.42;11.78;;;;;;;3.43;100.00;99730.17;2837588;82;21054;-91
2022/12/07 07:40:19;;;;;;;14.80;9.95;;;;;;;3.49;100.00;99730.76;2879170;82;21023;-91
2022/12/07 07:44:21;;;;;;;15.63;10.90;;;;;;;3.52;100.00;99722.19;2871034;82;21043;-92
2022/12/07 07:48:25;;;;;;;13.22;8.88;;;;;;;3.57;99.35;99724.09;2872232;82;21035;-92
2022/12/07 07:52:26;;;;;;;15.68;11.93;;;;;;;3.65;99.12;99730.20;2847658;82;21082;-93
2022/12/07 07:56:27;;;;;;;13.53;9.58;;;;;;;3.75;99.05;99729.16;2862737;82;21050;-92
2022/12/07 08:00:28;;;;;;;16.10;11.53;;;;;;;3.85;98.25;99722.84;2866496;82;21074;-93
2022/12/07 08:04:29;;;;;;;13.55;7.90;;;;;;;3.96;97.29;99732.69;2735555;84;21295;-92
2022/12/07 08:08:31;;;;;;;12.13;8.38;;;;;;;4.05;96.25;99729.95;2758610;85;21075;-91
2022/12/07 08:17:02;;;;;;;14.70;10.50;;;;;;;4.13;94.48;99719.30;2759564;85;21083;-91
2022/12/07 08:21:04;;;;;;;12.80;8.95;;;;;;;4.12;94.06;99715.44;2786335;84;21023;-93
2022/12/07 08:25:06;;;;;;;16.20;10.25;;;;;;;4.19;93.87;99710.63;2739042;85;21063;-92
2022/12/07 08:29:08;;;;;;;14.43;9.93;;;;;;;4.24;93.56;99712.03;2784848;84;20996;-92
2022/12/07 08:33:10;;;;;;;13.95;10.48;;;;;;;4.20;92.39;99711.83;2684948;85;21024;-90
2022/12/07 08:37:11;;;;;;;14.80;11.10;;;;;;;4.15;90.95;99713.92;2785872;84;21157;-92
2022/12/07 08:41:12;;;;;;;13.90;8.45;;;;;;;4.17;90.98;99716.47;2734610;85;21551;-93
2022/12/07 08:45:16;;;;;;;14.40;9.60;;;;;;;4.19;90.99;99712.77;2808028;84;21051;-92
2022/12/07 08:49:27;;;;;;;13.70;8.10;;;;;;;4.34;92.66;99714.05;2701895;86;21159;-92
2022/12/07 08:53:30;;;;;;;14.78;9.28;;;;;;;4.45;91.81;99713.34;2736210;84;21103;-93
2022/12/07 08:57:34;;;;;;;12.95;9.65;;;;;;;4.46;90.54;99697.45;2727259;85;21595;-93
2022/12/07 09:01:35;;;;;;;13.43;8.10;;;;;;;4.47;90.43;99693.02;2741752;86;21504;-93
2022/12/07 09:05:36;;;;;;;12.35;8.95;;;;;;;4.36;89.68;99696.36;2724910;85;21059;-91
2022/12/07 09:09:38;;;;;;;10.32;6.95;;;;;;;4.34;90.30;99684.62;2799295;83;21038;-92
2022/12/07 09:13:39;;;;;;;9.50;7.33;;;;;;;4.37;90.42;99684.42;2800894;83;21014;-92
2022/12/07 09:17:40;;;;;;;12.45;8.23;;;;;;;4.35;90.92;99679.73;2787601;83;21069;-93
2022/12/07 09:21:41;;;;;;;9.95;6.78;;;;;;;4.49;91.44;99671.38;2765024;83;21086;-93
2022/12/07 09:25:43;;;;;;;12.18;7.28;;;;;;;4.52;90.55;99664.58;2803817;83;21042;-92
2022/12/07 09:29:44;;;;;;;7.60;6.80;;;;;;;4.55;90.60;99652.05;2802458;83;21582;-92
2022/12/07 09:33:45;;;;;;;8.63;6.33;;;;;;;4.61;90.72;99652.13;2838916;83;21081;-92
2022/12/07 09:37:46;;;;;;;7.97;6.55;;;;;;;4.69;89.13;99649.80;2784365;83;21039;-92
2022/12/07 09:41:48;;;;;;;7.65;6.12;;;;;;;4.75;90.02;99653.82;2701127;85;21076;-92
2022/12/07 09:45:54;;;;;;;9.53;5.85;;;;;;;4.78;89.87;99656.73;2699835;86;21087;-92
2022/12/07 09:50:01;;;;;;;8.08;5.83;;;;;;;4.80;91.34;99645.61;2740108;84;21093;-92
2022/12/07 09:54:02;;;;;;;8.60;5.47;;;;;;;4.77;92.42;99644.51;2710799;85;21073;-93
2022/12/07 09:58:04;;;;;;;7.62;5.83;;;;;;;4.72;93.27;99652.72;2737396;85;21118;-93
2022/12/07 10:02:34;;;;;;;8.45;6.20;;;;;;;4.64;93.57;99650.59;2799073;83;21075;-93
2022/12/07 10:06:35;;;;;;;9.45;6.25;;;;;;;4.63;94.56;99650.23;2780524;84;21641;-91
2022/12/07 10:10:38;;;;;;;6.75;5.90;;;;;;;4.62;95.49;99653.81;2782870;84;21066;-93
2022/12/07 10:15:02;;;;;;;7.92;5.67;;;;;;;4.66;96.67;99647.38;2791829;84;21011;-92
2022/12/07 10:19:24;;;;;;;5.40;3.60;;;;;;;4.60;96.45;99631.14;2739794;84;21082;-92
2022/12/07 10:23:25;;;;;;;6.87;4.25;;;;;;;4.69;98.70;99635.31;2824003;82;21544;-92
2022/12/07 10:27:31;;;;;;;7.67;5.62;;;;;;;4.73;97.78;99632.50;2846414;82;21043;-92
2022/12/07 10:31:32;;;;;;;5.87;4.60;;;;;;;4.71;97.87;99628.14;2830233;82;21039;-93
2022/12/07 10:35:38;;;;;;;6.12;4.33;;;;;;;4.69;98.11;99623.95;2832562;82;21059;-92
2022/12/07 10:39:57;;;;;;;6.62;4.40;;;;;;;4.66;98.03;99624.98;2825734;82;21369;-89
2022/12/07 10:43:58;;;;;;;6.75;4.45;;;;;;;4.72;99.42;99626.37;2823094;83;21023;-92
2022/12/07 10:48:26;;;;;;;5.90;4.10;;;;;;;4.78;98.25;99625.11;2817257;83;21000;-92
2022/12/07 10:53:15;;;;;;;4.78;3.75;;;;;;;4.72;98.35;99630.32;2853808;82;21433;-91
2022/12/07 10:57:37;;;;;;;4.42;4.00;;;;;;;4.68;98.14;99628.36;2823544;83;20983;-93
2022/12/07 11:02:24;;;;;;;9.50;5.62;;;;;;;4.67;99.24;99629.30;2583440;89;21148;-92
2022/12/07 11:06:35;;;;;;;;;;;;;;;4.68;99.45;99632.31;2561859;91;21138;-92
2022/12/07 11:10:47;;;;;;;4.45;3.30;;;;;;;4.67;100.00;99624.53;2577270;90;20202;-92
2022/12/07 11:15:08;;;;;;;5.90;4.97;;;;;;;4.65;99.27;99622.48;2590395;90;21089;-92
2022/12/07 11:19:30;;;;;;;5.12;4.62;;;;;;;4.72;100.00;99621.09;2552253;90;21055;-93
2022/12/07 11:24:07;;;;;;;6.62;4.28;;;;;;;4.68;99.49;99628.36;2544198;90;21090;-93
2022/12/07 11:28:12;;;;;;;;;;;;;;;4.77;100.00;99627.37;2551963;91;21638;-92
2022/12/07 11:32:59;;;;;;;6.20;3.75;;;;;;;4.81;98.99;99620.95;2539854;90;20263;-92
2022/12/07 11:37:06;;;;;;;5.17;4.37;;;;;;;4.81;98.21;99614.36;2606300;83;21028;-92
2022/12/07 11:41:12;;;;;;;7.58;5.83;;;;;;;4.74;98.37;99598.13;2809786;83;21062;-90
2022/12/07 11:45:27;;;;;;;6.10;4.87;;;;;;;4.73;99.06;99600.88;2813133;83;21589;-93
2022/12/07 11:49:54;;;;;;;9.30;4.40;;;;;;;4.77;99.51;99599.72;2819414;82;21064;-93
2022/12/07 11:54:07;;;;;;;8.98;5.22;;;;;;;4.76;100.00;99589.63;2812862;83;21124;-93
2022/12/07 11:58:37;;;;;;;5.60;4.90;;;;;;;4.81;100.00;99605.13;2826690;82;21058;-92
2022/12/07 12:02:50;;;;;;;5.33;4.83;;;;;;;4.78;99.35;99579.00;2721293;86;21078;-92
2022/12/07 12:06:52;;;;;;;6.83;4.42;;;;;;;4.81;99.05;99576.15;2806360;83;21114;-92
2022/12/07 12:11:23;;;;;;;7.70;5.42;;;;;;;4.90;99.22;99570.22;2812373;83;21031;-90
2022/12/07 12:16:14;;;;;;;5.03;3.87;;;;;;;4.97;98.86;99577.23;2812059;83;21019;-91
2022/12/07 12:20:44;;;;;;;7.08;5.05;;;;;;;5.02;99.39;99573.83;2737150;85;21068;-92
2022/12/07 12:24:50;;;;;;;9.05;6.00;;;;;;;4.99;97.33;99566.10;2725161;86;21641;-93
2022/12/07 12:29:08;;;;;;;7.78;5.12;;;;;;;4.98;97.60;99577.14;2798681;83;21049;-93
2022/12/07 12:33:24;;;;;;;8.43;6.87;;;;;;;4.94;97.79;99578.31;2800379;83;21314;-91
2022/12/07 12:37:41;;;;;;;6.42;5.08;;;;;;;4.95;98.46;99577.36;2793121;83;21528;-92
2022/12/07 12:46:14;;;;;;;10.50;6.45;;;;;;;4.99;98.50;99570.06;2810966;83;21050;-93
2022/12/07 12:50:28;;;;;;;8.28;5.00;;;;;;;4.97;97.43;99562.27;2749699;85;21068;-94
2022/12/07 12:54:34;;;;;;;10.93;8.78;;;;;;;4.85;97.41;99557.85;2763549;84;21639;-92
2022/12/07 12:58:39;;;;;;;10.83;6.93;;;;;;;4.97;97.71;99561.42;2745150;84;21106;-93
2022/12/07 13:02:56;;;;;;;12.82;8.43;;;;;;;5.02;97.70;99565.91;2787268;83;21047;-93
2022/12/07 13:06:57;;;;;;;6.40;5.08;;;;;;;4.99;96.98;99569.59;2801156;83;21372;-92
2022/12/07 13:11:04;;;;;;;6.83;6.00;;;;;;;5.00;96.49;99562.52;2730406;85;21032;-89
2022/12/07 13:15:11;;;;;;;15.72;5.25;;;;;;;5.06;96.44;99571.33;2759464;81;21039;-92
2022/12/07 13:19:44;;;;;;;7.05;4.80;;;;;;;5.04;94.72;99567.96;2723059;85;21024;-93
2022/12/07 13:23:51;;;;;;;8.18;5.67;;;;;;;4.85;91.82;99561.34;2798038;84;21098;-93
2022/12/07 13:28:04;;;;;;;5.67;5.08;;;;;;;4.92;92.63;99563.54;2772568;85;21579;-93
2022/12/07 13:32:13;;;;;;;8.28;5.30;;;;;;;4.90;94.01;99565.44;2778968;83;21026;-93
2022/12/07 13:36:25;;;;;;;5.58;4.67;;;;;;;4.91;93.28;99562.69;2813802;83;21109;-91
2022/12/07 13:40:26;;;;;;;8.33;4.50;;;;;;;4.95;93.81;99558.91;2827884;83;21002;-93
2022/12/07 13:44:30;;;;;;;7.00;5.62;;;;;;;4.93;93.21;99571.35;2794478;83;20998;-91
2022/12/07 13:48:39;;;;;;;7.47;5.37;;;;;;;4.96;92.21;99567.18;2834447;83;21057;-91
2022/12/07 13:52:45;;;;;;;8.08;5.15;;;;;;;4.97;90.13;99555.69;2788779;83;21584;-92
2022/12/07 13:56:52;;;;;;;6.30;5.05;;;;;;;5.03;91.27;99574.19;2839644;83;21034;-92
2022/12/07 14:00:54;;;;;;;6.20;4.62;;;;;;;4.98;90.43;99566.59;2777757;84;21007;-91
2022/12/07 14:05:17;;;;;;;6.85;4.42;;;;;;;5.01;90.00;99577.38;2739017;85;21067;-90
2022/12/07 14:09:25;;;;;;;6.83;4.75;;;;;;;4.95;89.33;99572.09;2780399;84;21133;-92
2022/12/07 14:13:40;;;;;;;7.33;5.08;;;;;;;5.00;91.20;99576.55;2723544;85;21062;-92
2022/12/07 14:17:51;;;;;;;4.33;3.92;;;;;;;5.00;90.39;99584.45;2791638;82;21400;-90
2022/12/07 14:22:33;;;;;;;5.97;5.20;;;;;;;5.01;91.50;99591.88;2808430;83;21538;-91
2022/12/07 14:26:34;;;;;;;7.10;4.12;;;;;;;5.00;91.22;99584.92;2727941;85;21031;-93
2022/12/07 14:30:36;;;;;;;8.80;5.22;;;;;;;4.86;90.37;99582.80;2726392;86;21000;-91
2022/12/07 14:34:37;;;;;;;7.78;5.25;;;;;;;4.84;90.10;99589.11;2750456;85;21070;-91
2022/12/07 14:38:38;;;;;;;11.08;5.87;;;;;;;4.74;90.40;99586.27;2750507;85;22265;-93
2022/12/07 14:42:40;;;;;;;6.25;4.80;;;;;;;4.69;90.24;99591.84;2731301;85;21031;-90
2022/12/07 14:46:41;;;;;;;6.95;4.55;;;;;;;4.58;90.87;99593.89;2751852;85;21063;-91
2022/12/07 14:50:51;;;;;;;5.97;4.78;;;;;;;4.45;91.63;99588.25;2702977;85;21094;-92
2022/12/07 14:54:53;;;;;;;6.70;4.65;;;;;;;4.35;92.41;99591.98;2727903;85;21587;-91
2022/12/07 14:58:54;;;;;;;5.80;4.87;;;;;;;4.26;92.94;99583.77;2728825;85;21082;-91
2022/12/07 15:02:56;;;;;;;8.35;4.87;;;;;;;4.22;93.34;99590.16;2721992;85;21062;-90
2022/12/07 15:07:01;;;;;;;6.40;4.60;;;;;;;4.18;93.40;99593.11;2727569;85;21087;-89
2022/12/07 15:11:02;;;;;;;8.20;5.45;;;;;;;4.17;93.64;99595.38;2726095;85;21673;-89
2022/12/07 15:15:05;;;;;;;8.43;6.35;;;;;;;4.16;93.92;99598.47;2716690;85;21050;-90
2022/12/07 15:19:17;;;;;;;12.07;6.85;;;;;;;4.07;94.65;99601.23;2673753;87;20991;-89
2022/12/07 15:23:18;;;;;;;7.42;6.30;;;;;;;4.06;94.83;99598.23;2726819;86;21629;-90
2022/12/07 15:27:20;;;;;;;7.25;5.55;;;;;;;4.04;95.75;99598.80;2722720;86;21115;-91
2022/12/07 15:31:21;;;;;;;7.53;5.65;;;;;;;4.03;96.45;99608.96;2723392;86;21095;-88
2022/12/07 15:35:24;;;;;;;8.28;5.75;;;;;;;4.09;96.42;99611.19;2692843;85;21091;-88
2022/12/07 15:39:26;;;;;;;5.72;4.08;;;;;;;4.11;96.68;99606.66;2714424;86;21122;-85
2022/12/07 15:47:49;;;;;;;7.42;4.67;;;;;;;4.16;97.58;99609.48;2698751;86;21494;-89
2022/12/07 15:51:50;;;;;;;7.37;4.62;;;;;;;4.23;97.61;99612.07;2710417;85;21077;-89
2022/12/07 15:55:51;;;;;;;5.40;4.85;;;;;;;4.32;97.41;99620.66;2670733;87;21662;-89
2022/12/07 15:59:53;;;;;;;7.37;5.20;;;;;;;4.34;96.80;99613.98;2668857;87;21060;-88
2022/12/07 16:03:57;;;;;;;4.97;3.45;;;;;;;4.34;96.02;99613.53;2677881;88;21072;-88
2022/12/07 16:07:58;;;;;;;5.08;4.05;;;;;;;4.40;95.63;99617.06;2721921;86;21051;-86
2022/12/07 16:11:59;;;;;;;3.80;3.02;;;;;;;4.42;94.86;99619.11;2763484;84;21045;-85
2022/12/07 16:16:07;;;;;;;4.42;3.25;;;;;;;4.32;94.39;99615.39;2760314;84;21012;-86
2022/12/07 16:20:09;;;;;;;5.72;4.25;;;;;;;4.29;94.00;99612.97;2761652;86;21033;-87
2022/12/07 16:24:12;;;;;;;5.30;3.85;;;;;;;4.20;94.27;99621.49;2755061;84;20991;-88
2022/12/07 16:28:14;;;;;;;3.22;2.72;;;;;;;4.09;94.41;99615.13;2652444;88;30578;-85
2022/12/07 16:32:15;;;;;;;5.25;4.17;;;;;;;4.03;94.47;99610.28;2655843;87;21112;-87
2022/12/07 16:36:18;;;;;;;4.62;4.22;;;;;;;3.94;94.88;99618.30;2601030;89;21061;-87
2022/12/07 16:40:19;;;;;;;3.15;2.80;;;;;;;3.89;95.22;99614.27;2652384;87;21132;-88
2022/12/07 16:44:20;;;;;;;6.45;3.67;;;;;;;3.83;95.42;99616.83;2657078;88;21691;-88
2022/12/07 16:48:22;;;;;;;7.25;4.00;;;;;;;3.75;95.83;99617.34;2657075;88;21046;-88
2022/12/07 16:52:23;;;;;;;5.92;3.83;;;;;;;3.68;96.14;99619.98;2659359;87;21119;-87
2022/12/07 16:56:26;;;;;;;4.80;4.30;;;;;;;3.65;96.05;99624.12;2727594;85;21608;-89
2022/12/07 17:00:27;;;;;;;6.80;3.52;;;;;;;3.56;96.04;99612.40;2747119;85;21067;-89
2022/12/07 17:04:28;;;;;;;7.08;4.70;;;;;;;3.55;95.98;99618.14;2728909;85;21605;-89
2022/12/07 17:08:30;;;;;;;4.17;3.05;;;;;;;3.50;95.70;99612.31;2730827;85;20970;-89
2022/12/07 17:12:31;;;;;;;5.15;2.72;;;;;;;3.46;95.47;99617.39;2687731;85;21684;-88
2022/12/07 17:16:32;;;;;;;4.45;3.47;;;;;;;3.40;95.38;99616.48;2742911;85;21130;-90
2022/12/07 17:20:34;;;;;;;7.55;3.87;;;;;;;3.34;95.82;99609.81;2652302;88;21120;-89
2022/12/07 17:24:35;;;;;;;6.17;3.40;;;;;;;3.28;95.84;99611.03;2670263;86;21824;-88
2022/12/07 17:28:37;;;;;;;4.85;2.72;;;;;;;3.26;95.92;99607.66;2716307;87;21058;-89
2022/12/07 17:32:38;;;;;;;15.23;5.03;;;;;;;3.21;95.77;99616.31;2726998;85;21011;-89
2022/12/07 17:36:41;;;;;;;7.33;4.33;;;;;;;3.21;95.72;99612.36;2727916;87;21094;-89
2022/12/07 17:40:42;;;;;;;6.35;4.28;;;;;;;3.13;96.13;99619.41;2728081;85;21027;-89
2022/12/07 17:44:43;;;;;;;5.35;3.00;;;;;;;3.13;96.56;99621.17;2720037;85;21160;-88
2022/12/07 17:48:44;;;;;;;4.60;3.70;;;;;;;3.12;97.15;99620.80;2723758;85;21086;-89
2022/12/07 17:57:05;;;;;;;6.97;5.00;;;;;;;3.06;97.35;99621.19;2706222;85;21491;-88
2022/12/07 18:01:10;;;;;;;7.70;6.30;;;;;;;3.05;97.63;99619.50;2725781;87;21078;-88
2022/12/07 18:05:11;;;;;;;11.30;7.30;;;;;;;3.04;97.48;99629.64;2704220;85;21000;-89
2022/12/07 18:09:13;;;;;;;14.05;7.03;;;;;;;3.03;98.10;99629.27;2713270;87;21062;-88
2022/12/07 18:17:33;;;;;;;11.20;8.53;;;;;;;3.03;98.71;99621.38;2695317;85;21083;-87
2022/12/07 18:21:34;;;;;;;6.47;5.00;;;;;;;3.05;98.78;99619.50;2709317;87;21042;-90
2022/12/07 18:25:35;;;;;;;10.55;5.95;;;;;;;3.08;98.66;99620.16;2724734;87;21029;-88
2022/12/07 18:29:37;;;;;;;7.20;5.60;;;;;;;3.08;98.82;99616.68;2722856;87;21015;-91
2022/12/07 18:33:40;;;;;;;9.38;7.03;;;;;;;3.02;99.67;99614.44;2699526;86;21042;-88
2022/12/07 18:37:41;;;;;;;9.90;5.28;;;;;;;3.04;99.76;99616.50;2722308;85;21090;-87
2022/12/07 18:41:43;;;;;;;9.43;6.67;;;;;;;3.03;100.00;99620.89;2768438;84;21625;-87
2022/12/07 18:45:47;;;;;;;9.25;5.55;;;;;;;3.09;100.00;99618.37;2770961;84;21018;-90
2022/12/07 18:49:49;;;;;;;13.93;6.58;;;;;;;3.08;99.80;99620.16;2776611;84;21391;-88
2022/12/07 18:53:50;;;;;;;8.45;5.50;;;;;;;3.08;99.87;99621.94;2745755;85;21061;-89
2022/12/07 18:57:52;;;;;;;14.23;6.90;;;;;;;3.11;99.84;99619.11;2715650;85;21098;-89
2022/12/07 19:01:54;;;;;;;7.00;5.40;;;;;;;3.12;100.00;99623.43;2768512;84;21038;-89
2022/12/07 19:05:57;;;;;;;6.22;4.72;;;;;;;3.17;100.00;99627.09;2728063;84;21674;-89
2022/12/07 19:09:58;;;;;;;9.20;5.30;;;;;;;3.21;99.79;99624.19;2765580;84;21117;-88
2022/12/07 19:13:59;;;;;;;9.93;5.95;;;;;;;3.22;99.55;99628.96;2753051;84;21056;-89
2022/12/07 19:18:01;;;;;;;5.97;4.75;;;;;;;3.24;99.42;99625.31;2743405;84;21520;-89
2022/12/07 19:22:03;;;;;;;7.35;4.70;;;;;;;3.26;99.07;99627.37;2756049;86;21058;-90
2022/12/07 19:26:04;;;;;;;7.12;6.35;;;;;;;3.27;98.95;99622.98;2730252;84;21026;-88
2022/12/07 19:30:09;;;;;;;8.60;4.45;;;;;;;3.28;99.04;99622.86;2739059;85;21046;-88
2022/12/07 19:34:14;;;;;;;8.65;5.08;;;;;;;3.31;99.29;99623.61;2765537;85;21585;-89
2022/12/07 19:38:16;;;;;;;6.53;5.07;;;;;;;3.35;99.06;99619.38;2763200;86;21113;-90
2022/12/07 19:42:17;;;;;;;6.60;4.83;;;;;;;3.37;98.85;99621.93;2757011;84;21585;-90
2022/12/07 19:46:19;;;;;;;8.35;5.25;;;;;;;3.40;98.88;99634.88;2765102;84;21098;-88
2022/12/07 19:50:20;;;;;;;9.98;5.60;;;;;;;3.40;98.82;99626.51;2763338;86;21077;-90